Boston, MA

2:55 PM EDT on April 27, 2015 (GMT -0400)
orient hights | | Change Station
CLOSE
Current Station
Personal Weather Station
Location: Boston, MA
Elevation: 79 ft
Nearby Weather Stations

Elev 79 ft 42.39 °N, 71.00 °W | Updated 3 minutes ago

Overcast
Overcast
56.5 °F
Feels Like 56.5 °F
N
12.5
Wind Variable Wind from NW

Today
High -- | Low -- °F
--% Chance of Precip.
Yesterday
High -- | Low -- °F
Precip. -- in
5:45 AM 7:38 PM
Waxing Gibbous, 67% visible
Pressure 29.54 in
Visibility 10.0 miles
Clouds Scattered Clouds 4800 ft
Overcast 6000 ft
Dew Point 36 °F
Humidity 46%
Rainfall 0.00 in
Snow Depth Not available.
UV 3 out of 12
Pollen 9.20 out of 12
Air Quality Not available.
Flu Activity Widespread
METAR KBOS 271754Z 30013G19KT 10SM SCT048 OVC060 14/01 A2954 RMK AO2 SLP002 VIRGA T01390011 10139 20094 56012

More Conditions Fewer Conditions

Pressure 29.54 in
Visibility 10.0 miles
Clouds Scattered Clouds 4800 ft
Overcast 6000 ft
Dew Point 36 °F
Humidity 46%
Rainfall 0.00 in
Snow Depth Not available.
UV 3 out of 12
Pollen 9.20 out of 12
Air Quality Not available.
Flu Activity Widespread
METAR KBOS 271754Z 30013G19KT 10SM SCT048 OVC060 14/01 A2954 RMK AO2 SLP002 VIRGA T01390011 10139 20094 56012

More Conditions Fewer Conditions

10-Day Weather Forecast

Almanac

Astronomy

Apr. 27, 2015 Rise Set
Actual Time
Civil Twilight
Nautical Twilight
Astronomical Twilight
Moon
Length of Visible Light
Length of Day
Tomorrow will be .
, % of the Moon is Illuminated

Today's Extremes

State Highs State Lows

Community

WunderPhotos

Upload Photos

1,817,398 photos uploaded!

WunderBlogs® & News

Nearby

Air Quality

  Air Quality AQ Index Pollutant
Not available.

Snow Depth

Station Depth Elevation

Earthquake Activity

City Distance Mag. Time & Date
Minimum magnitude displayed is 2.5.

Coastal Water Temperatures

Place Temperature

Stations

Nearby Weather Stations

Station Location Temp. Windchill Dew Point Humidity Wind Precip. Elev Updated Type